sensor_id;sensor_type;location;lat;lon;timestamp;P1;durP1;ratioP1;P2;durP2;ratioP2
16440;SDS011;8330;-33.858;151.184;2023-02-03T00:01:41;5.78;;;1.10;;
16440;SDS011;8330;-33.858;151.184;2023-02-03T00:04:12;2.33;;;0.80;;
16440;SDS011;8330;-33.858;151.184;2023-02-03T00:06:43;5.57;;;1.00;;
16440;SDS011;8330;-33.858;151.184;2023-02-03T00:09:14;4.57;;;1.00;;
16440;SDS011;8330;-33.858;151.184;2023-02-03T00:11:47;3.17;;;0.93;;
16440;SDS011;8330;-33.858;151.184;2023-02-03T00:14:19;2.83;;;0.50;;
16440;SDS011;8330;-33.858;151.184;2023-02-03T00:16:49;1.45;;;0.75;;
16440;SDS011;8330;-33.858;151.184;2023-02-03T00:19:20;5.03;;;0.80;;
16440;SDS011;8330;-33.858;151.184;2023-02-03T00:21:51;3.53;;;1.08;;
16440;SDS011;8330;-33.858;151.184;2023-02-03T00:24:22;3.13;;;1.00;;
16440;SDS011;8330;-33.858;151.184;2023-02-03T00:26:55;3.13;;;1.30;;
16440;SDS011;8330;-33.858;151.184;2023-02-03T00:29:26;2.85;;;0.82;;
16440;SDS011;8330;-33.858;151.184;2023-02-03T00:31:57;4.95;;;1.13;;
16440;SDS011;8330;-33.858;151.184;2023-02-03T00:34:31;3.83;;;1.27;;
16440;SDS011;8330;-33.858;151.184;2023-02-03T00:37:04;2.58;;;0.93;;
16440;SDS011;8330;-33.858;151.184;2023-02-03T00:39:35;4.10;;;0.82;;
16440;SDS011;8330;-33.858;151.184;2023-02-03T00:42:11;1.90;;;0.73;;
16440;SDS011;8330;-33.858;151.184;2023-02-03T00:44:43;3.75;;;0.85;;
16440;SDS011;8330;-33.858;151.184;2023-02-03T00:47:14;3.75;;;1.00;;
16440;SDS011;8330;-33.858;151.184;2023-02-03T00:49:44;2.17;;;0.70;;
16440;SDS011;8330;-33.858;151.184;2023-02-03T00:52:16;3.63;;;0.75;;
16440;SDS011;8330;-33.858;151.184;2023-02-03T00:54:47;2.80;;;0.88;;
16440;SDS011;8330;-33.858;151.184;2023-02-03T00:57:20;5.63;;;0.75;;
16440;SDS011;8330;-33.858;151.184;2023-02-03T00:59:53;2.95;;;0.70;;
16440;SDS011;8330;-33.858;151.184;2023-02-03T01:02:25;4.53;;;1.10;;
16440;SDS011;8330;-33.858;151.184;2023-02-03T01:04:56;4.25;;;1.10;;
16440;SDS011;8330;-33.858;151.184;2023-02-03T01:07:30;5.90;;;1.23;;
16440;SDS011;8330;-33.858;151.184;2023-02-03T01:10:01;2.83;;;1.08;;
16440;SDS011;8330;-33.858;151.184;2023-02-03T01:12:34;3.95;;;1.08;;
16440;SDS011;8330;-33.858;151.184;2023-02-03T01:15:05;2.67;;;0.77;;
16440;SDS011;8330;-33.858;151.184;2023-02-03T01:17:39;6.07;;;0.93;;
16440;SDS011;8330;-33.858;151.184;2023-02-03T01:20:11;5.65;;;0.98;;
16440;SDS011;8330;-33.858;151.184;2023-02-03T01:22:42;7.32;;;1.20;;
16440;SDS011;8330;-33.858;151.184;2023-02-03T01:25:13;3.40;;;0.75;;
16440;SDS011;8330;-33.858;151.184;2023-02-03T01:27:46;4.38;;;0.80;;
16440;SDS011;8330;-33.858;151.184;2023-02-03T01:30:19;2.95;;;0.70;;
16440;SDS011;8330;-33.858;151.184;2023-02-03T01:32:50;5.55;;;0.60;;
16440;SDS011;8330;-33.858;151.184;2023-02-03T01:35:21;3.45;;;1.13;;
16440;SDS011;8330;-33.858;151.184;2023-02-03T01:37:52;4.60;;;0.95;;
16440;SDS011;8330;-33.858;151.184;2023-02-03T01:40:24;5.05;;;1.02;;
16440;SDS011;8330;-33.858;151.184;2023-02-03T01:42:57;1.77;;;0.80;;
16440;SDS011;8330;-33.858;151.184;2023-02-03T01:45:28;2.78;;;0.70;;
16440;SDS011;8330;-33.858;151.184;2023-02-03T01:48:00;4.35;;;0.80;;
16440;SDS011;8330;-33.858;151.184;2023-02-03T01:50:32;3.75;;;0.75;;
16440;SDS011;8330;-33.858;151.184;2023-02-03T01:53:06;2.75;;;0.77;;
16440;SDS011;8330;-33.858;151.184;2023-02-03T01:55:40;3.42;;;0.93;;
16440;SDS011;8330;-33.858;151.184;2023-02-03T01:58:17;2.85;;;0.88;;
16440;SDS011;8330;-33.858;151.184;2023-02-03T02:00:50;5.43;;;0.88;;
16440;SDS011;8330;-33.858;151.184;2023-02-03T02:03:22;5.50;;;1.15;;
16440;SDS011;8330;-33.858;151.184;2023-02-03T02:05:56;8.93;;;1.10;;
16440;SDS011;8330;-33.858;151.184;2023-02-03T02:08:31;3.20;;;1.17;;
16440;SDS011;8330;-33.858;151.184;2023-02-03T02:11:03;4.43;;;0.80;;
16440;SDS011;8330;-33.858;151.184;2023-02-03T02:13:37;3.40;;;1.15;;
16440;SDS011;8330;-33.858;151.184;2023-02-03T02:16:11;6.03;;;1.00;;
16440;SDS011;8330;-33.858;151.184;2023-02-03T02:18:53;4.95;;;0.90;;
16440;SDS011;8330;-33.858;151.184;2023-02-03T02:21:45;2.75;;;0.95;;
16440;SDS011;8330;-33.858;151.184;2023-02-03T02:24:39;8.05;;;1.92;;
16440;SDS011;8330;-33.858;151.184;2023-02-03T02:30:42;4.93;;;0.80;;
16440;SDS011;8330;-33.858;151.184;2023-02-03T02:33:35;3.80;;;0.90;;
16440;SDS011;8330;-33.858;151.184;2023-02-03T02:36:12;9.35;;;1.17;;
16440;SDS011;8330;-33.858;151.184;2023-02-03T02:38:56;5.18;;;1.10;;
16440;SDS011;8330;-33.858;151.184;2023-02-03T02:41:33;6.22;;;0.90;;
16440;SDS011;8330;-33.858;151.184;2023-02-03T02:44:09;2.53;;;0.90;;
16440;SDS011;8330;-33.858;151.184;2023-02-03T02:46:45;4.30;;;0.75;;
16440;SDS011;8330;-33.858;151.184;2023-02-03T02:49:20;3.75;;;0.82;;
16440;SDS011;8330;-33.858;151.184;2023-02-03T02:52:01;3.05;;;0.80;;
16440;SDS011;8330;-33.858;151.184;2023-02-03T02:54:35;5.97;;;1.20;;
16440;SDS011;8330;-33.858;151.184;2023-02-03T02:57:11;3.90;;;0.90;;
16440;SDS011;8330;-33.858;151.184;2023-02-03T02:59:44;2.63;;;0.70;;
16440;SDS011;8330;-33.858;151.184;2023-02-03T03:02:16;3.75;;;1.00;;
16440;SDS011;8330;-33.858;151.184;2023-02-03T03:04:49;3.45;;;0.80;;
16440;SDS011;8330;-33.858;151.184;2023-02-03T03:07:21;3.35;;;0.82;;
16440;SDS011;8330;-33.858;151.184;2023-02-03T03:09:55;2.95;;;0.90;;
16440;SDS011;8330;-33.858;151.184;2023-02-03T03:12:29;3.15;;;0.90;;
16440;SDS011;8330;-33.858;151.184;2023-02-03T03:15:04;3.70;;;0.73;;
16440;SDS011;8330;-33.858;151.184;2023-02-03T03:17:38;5.15;;;0.80;;
16440;SDS011;8330;-33.858;151.184;2023-02-03T03:20:14;4.00;;;1.00;;
16440;SDS011;8330;-33.858;151.184;2023-02-03T03:22:51;2.30;;;0.80;;
16440;SDS011;8330;-33.858;151.184;2023-02-03T03:25:27;5.07;;;1.00;;
16440;SDS011;8330;-33.858;151.184;2023-02-03T03:28:04;4.95;;;0.85;;
16440;SDS011;8330;-33.858;151.184;2023-02-03T03:30:40;4.68;;;1.20;;
16440;SDS011;8330;-33.858;151.184;2023-02-03T03:33:13;6.15;;;0.98;;
16440;SDS011;8330;-33.858;151.184;2023-02-03T03:35:48;1.77;;;0.65;;
16440;SDS011;8330;-33.858;151.184;2023-02-03T03:38:24;8.63;;;1.05;;
16440;SDS011;8330;-33.858;151.184;2023-02-03T03:41:06;4.25;;;0.80;;
16440;SDS011;8330;-33.858;151.184;2023-02-03T03:43:42;2.10;;;0.57;;
16440;SDS011;8330;-33.858;151.184;2023-02-03T03:46:16;2.40;;;0.60;;
16440;SDS011;8330;-33.858;151.184;2023-02-03T03:48:53;3.35;;;0.73;;
16440;SDS011;8330;-33.858;151.184;2023-02-03T03:51:30;3.75;;;0.80;;
16440;SDS011;8330;-33.858;151.184;2023-02-03T03:54:03;3.50;;;0.65;;
16440;SDS011;8330;-33.858;151.184;2023-02-03T03:56:37;5.00;;;1.00;;
16440;SDS011;8330;-33.858;151.184;2023-02-03T03:59:11;2.85;;;0.80;;
16440;SDS011;8330;-33.858;151.184;2023-02-03T04:01:48;3.67;;;1.02;;
16440;SDS011;8330;-33.858;151.184;2023-02-03T04:04:24;3.65;;;0.73;;
16440;SDS011;8330;-33.858;151.184;2023-02-03T04:06:57;4.30;;;1.10;;
16440;SDS011;8330;-33.858;151.184;2023-02-03T04:09:28;2.78;;;0.90;;
16440;SDS011;8330;-33.858;151.184;2023-02-03T04:12:02;2.28;;;0.70;;
16440;SDS011;8330;-33.858;151.184;2023-02-03T04:14:33;3.83;;;0.77;;
16440;SDS011;8330;-33.858;151.184;2023-02-03T04:17:05;2.65;;;0.80;;
16440;SDS011;8330;-33.858;151.184;2023-02-03T04:19:38;2.78;;;0.88;;
16440;SDS011;8330;-33.858;151.184;2023-02-03T04:22:10;2.67;;;1.23;;
16440;SDS011;8330;-33.858;151.184;2023-02-03T04:24:42;3.60;;;0.90;;
16440;SDS011;8330;-33.858;151.184;2023-02-03T04:27:12;1.75;;;0.75;;
16440;SDS011;8330;-33.858;151.184;2023-02-03T04:29:43;3.90;;;0.90;;
16440;SDS011;8330;-33.858;151.184;2023-02-03T04:32:15;3.75;;;0.90;;
16440;SDS011;8330;-33.858;151.184;2023-02-03T04:34:47;5.72;;;0.88;;
16440;SDS011;8330;-33.858;151.184;2023-02-03T04:37:22;2.75;;;0.93;;
16440;SDS011;8330;-33.858;151.184;2023-02-03T04:39:54;3.10;;;0.70;;
16440;SDS011;8330;-33.858;151.184;2023-02-03T04:42:27;2.30;;;0.70;;
16440;SDS011;8330;-33.858;151.184;2023-02-03T04:45:04;5.90;;;1.05;;
16440;SDS011;8330;-33.858;151.184;2023-02-03T04:47:39;8.35;;;1.02;;
16440;SDS011;8330;-33.858;151.184;2023-02-03T04:50:10;2.72;;;0.82;;
16440;SDS011;8330;-33.858;151.184;2023-02-03T04:52:43;3.08;;;0.90;;
16440;SDS011;8330;-33.858;151.184;2023-02-03T04:55:14;2.10;;;0.55;;
16440;SDS011;8330;-33.858;151.184;2023-02-03T04:57:47;2.25;;;0.63;;
16440;SDS011;8330;-33.858;151.184;2023-02-03T05:00:23;3.78;;;0.70;;
16440;SDS011;8330;-33.858;151.184;2023-02-03T05:02:57;3.92;;;0.90;;
16440;SDS011;8330;-33.858;151.184;2023-02-03T05:05:29;2.25;;;0.95;;
16440;SDS011;8330;-33.858;151.184;2023-02-03T05:08:02;2.00;;;0.73;;
16440;SDS011;8330;-33.858;151.184;2023-02-03T05:10:34;3.00;;;0.70;;
16440;SDS011;8330;-33.858;151.184;2023-02-03T05:13:06;2.60;;;0.70;;
16440;SDS011;8330;-33.858;151.184;2023-02-03T05:15:37;2.53;;;0.55;;
16440;SDS011;8330;-33.858;151.184;2023-02-03T05:18:09;3.75;;;0.80;;
16440;SDS011;8330;-33.858;151.184;2023-02-03T05:20:40;2.90;;;0.80;;
16440;SDS011;8330;-33.858;151.184;2023-02-03T05:23:13;2.53;;;0.63;;
16440;SDS011;8330;-33.858;151.184;2023-02-03T05:25:48;4.80;;;0.90;;
16440;SDS011;8330;-33.858;151.184;2023-02-03T05:28:18;2.40;;;0.70;;
16440;SDS011;8330;-33.858;151.184;2023-02-03T05:30:49;4.18;;;0.68;;
16440;SDS011;8330;-33.858;151.184;2023-02-03T05:33:20;4.18;;;0.80;;
16440;SDS011;8330;-33.858;151.184;2023-02-03T05:35:51;4.43;;;0.85;;
16440;SDS011;8330;-33.858;151.184;2023-02-03T05:38:26;3.75;;;1.00;;
16440;SDS011;8330;-33.858;151.184;2023-02-03T05:40:57;2.10;;;0.93;;
16440;SDS011;8330;-33.858;151.184;2023-02-03T05:43:45;4.40;;;0.90;;
16440;SDS011;8330;-33.858;151.184;2023-02-03T05:46:21;3.45;;;0.70;;
16440;SDS011;8330;-33.858;151.184;2023-02-03T05:48:52;3.50;;;0.93;;
16440;SDS011;8330;-33.858;151.184;2023-02-03T05:51:23;3.17;;;0.90;;
16440;SDS011;8330;-33.858;151.184;2023-02-03T05:53:57;2.25;;;0.77;;
16440;SDS011;8330;-33.858;151.184;2023-02-03T05:56:30;3.13;;;1.17;;
16440;SDS011;8330;-33.858;151.184;2023-02-03T05:59:01;2.38;;;0.73;;
16440;SDS011;8330;-33.858;151.184;2023-02-03T06:01:32;4.18;;;0.80;;
16440;SDS011;8330;-33.858;151.184;2023-02-03T06:04:05;3.60;;;0.80;;
16440;SDS011;8330;-33.858;151.184;2023-02-03T06:06:36;3.25;;;0.85;;
16440;SDS011;8330;-33.858;151.184;2023-02-03T06:09:09;2.85;;;0.90;;
16440;SDS011;8330;-33.858;151.184;2023-02-03T06:11:40;2.95;;;1.02;;
16440;SDS011;8330;-33.858;151.184;2023-02-03T06:14:11;3.50;;;0.90;;
16440;SDS011;8330;-33.858;151.184;2023-02-03T06:16:42;4.95;;;1.10;;
16440;SDS011;8330;-33.858;151.184;2023-02-03T06:19:13;3.85;;;0.70;;
16440;SDS011;8330;-33.858;151.184;2023-02-03T06:21:44;1.73;;;0.80;;
16440;SDS011;8330;-33.858;151.184;2023-02-03T06:24:18;2.40;;;0.80;;
16440;SDS011;8330;-33.858;151.184;2023-02-03T06:26:49;3.35;;;0.70;;
16440;SDS011;8330;-33.858;151.184;2023-02-03T06:29:22;3.28;;;0.80;;
16440;SDS011;8330;-33.858;151.184;2023-02-03T06:31:53;2.83;;;0.60;;
16440;SDS011;8330;-33.858;151.184;2023-02-03T06:34:24;4.45;;;0.80;;
16440;SDS011;8330;-33.858;151.184;2023-02-03T06:36:58;5.20;;;1.00;;
16440;SDS011;8330;-33.858;151.184;2023-02-03T06:39:31;5.45;;;1.15;;
16440;SDS011;8330;-33.858;151.184;2023-02-03T06:42:03;4.00;;;0.70;;
16440;SDS011;8330;-33.858;151.184;2023-02-03T06:44:34;2.08;;;0.63;;
16440;SDS011;8330;-33.858;151.184;2023-02-03T06:47:05;2.75;;;0.90;;
16440;SDS011;8330;-33.858;151.184;2023-02-03T06:49:38;2.35;;;0.80;;
16440;SDS011;8330;-33.858;151.184;2023-02-03T06:52:10;5.10;;;1.05;;
16440;SDS011;8330;-33.858;151.184;2023-02-03T06:54:43;4.75;;;0.85;;
16440;SDS011;8330;-33.858;151.184;2023-02-03T06:57:14;4.40;;;1.10;;
16440;SDS011;8330;-33.858;151.184;2023-02-03T06:59:45;1.83;;;0.80;;
16440;SDS011;8330;-33.858;151.184;2023-02-03T07:02:16;4.53;;;0.98;;
16440;SDS011;8330;-33.858;151.184;2023-02-03T07:04:47;4.53;;;0.90;;
16440;SDS011;8330;-33.858;151.184;2023-02-03T07:07:18;5.93;;;1.23;;
16440;SDS011;8330;-33.858;151.184;2023-02-03T07:09:50;3.92;;;0.93;;
16440;SDS011;8330;-33.858;151.184;2023-02-03T07:12:21;6.05;;;1.20;;
16440;SDS011;8330;-33.858;151.184;2023-02-03T07:14:53;3.50;;;0.90;;
16440;SDS011;8330;-33.858;151.184;2023-02-03T07:17:23;4.55;;;1.10;;
16440;SDS011;8330;-33.858;151.184;2023-02-03T07:19:54;4.07;;;1.00;;
16440;SDS011;8330;-33.858;151.184;2023-02-03T07:22:27;2.95;;;1.10;;
16440;SDS011;8330;-33.858;151.184;2023-02-03T07:25:05;2.80;;;0.80;;
16440;SDS011;8330;-33.858;151.184;2023-02-03T07:27:36;2.70;;;0.98;;
16440;SDS011;8330;-33.858;151.184;2023-02-03T07:30:07;4.07;;;1.27;;
16440;SDS011;8330;-33.858;151.184;2023-02-03T07:32:39;5.10;;;1.33;;
16440;SDS011;8330;-33.858;151.184;2023-02-03T07:35:14;3.33;;;1.00;;
16440;SDS011;8330;-33.858;151.184;2023-02-03T07:37:45;2.97;;;0.90;;
16440;SDS011;8330;-33.858;151.184;2023-02-03T07:40:18;4.03;;;0.98;;
16440;SDS011;8330;-33.858;151.184;2023-02-03T07:42:49;2.72;;;0.80;;
16440;SDS011;8330;-33.858;151.184;2023-02-03T07:45:21;5.22;;;1.40;;
16440;SDS011;8330;-33.858;151.184;2023-02-03T07:47:56;3.30;;;1.83;;
16440;SDS011;8330;-33.858;151.184;2023-02-03T07:50:28;5.82;;;1.20;;
16440;SDS011;8330;-33.858;151.184;2023-02-03T07:53:00;2.38;;;1.27;;
16440;SDS011;8330;-33.858;151.184;2023-02-03T07:55:33;4.32;;;1.40;;
16440;SDS011;8330;-33.858;151.184;2023-02-03T07:58:05;5.18;;;1.35;;
16440;SDS011;8330;-33.858;151.184;2023-02-03T08:00:36;3.47;;;1.02;;
16440;SDS011;8330;-33.858;151.184;2023-02-03T08:03:09;3.28;;;1.00;;
16440;SDS011;8330;-33.858;151.184;2023-02-03T08:05:41;2.53;;;0.90;;
16440;SDS011;8330;-33.858;151.184;2023-02-03T08:08:12;3.28;;;0.93;;
16440;SDS011;8330;-33.858;151.184;2023-02-03T08:10:45;2.70;;;0.95;;
16440;SDS011;8330;-33.858;151.184;2023-02-03T08:13:16;4.50;;;1.10;;
16440;SDS011;8330;-33.858;151.184;2023-02-03T08:15:47;4.88;;;1.10;;
16440;SDS011;8330;-33.858;151.184;2023-02-03T08:18:18;3.75;;;0.90;;
16440;SDS011;8330;-33.858;151.184;2023-02-03T08:20:49;3.70;;;1.05;;
16440;SDS011;8330;-33.858;151.184;2023-02-03T08:23:20;3.95;;;1.00;;
16440;SDS011;8330;-33.858;151.184;2023-02-03T08:25:54;5.93;;;1.00;;
16440;SDS011;8330;-33.858;151.184;2023-02-03T08:28:27;3.30;;;1.00;;
16440;SDS011;8330;-33.858;151.184;2023-02-03T08:30:58;2.05;;;0.90;;
16440;SDS011;8330;-33.858;151.184;2023-02-03T08:33:29;6.82;;;1.38;;
16440;SDS011;8330;-33.858;151.184;2023-02-03T08:36:00;3.50;;;1.10;;
16440;SDS011;8330;-33.858;151.184;2023-02-03T08:38:31;2.78;;;1.10;;
16440;SDS011;8330;-33.858;151.184;2023-02-03T08:41:09;6.50;;;1.30;;
16440;SDS011;8330;-33.858;151.184;2023-02-03T08:43:41;3.03;;;1.13;;
16440;SDS011;8330;-33.858;151.184;2023-02-03T08:46:13;2.53;;;1.10;;
16440;SDS011;8330;-33.858;151.184;2023-02-03T08:48:44;3.28;;;1.20;;
16440;SDS011;8330;-33.858;151.184;2023-02-03T08:51:18;3.78;;;1.10;;
16440;SDS011;8330;-33.858;151.184;2023-02-03T08:53:49;2.72;;;1.10;;
16440;SDS011;8330;-33.858;151.184;2023-02-03T08:56:22;4.82;;;1.40;;
16440;SDS011;8330;-33.858;151.184;2023-02-03T08:58:54;4.43;;;1.40;;
16440;SDS011;8330;-33.858;151.184;2023-02-03T09:01:25;4.13;;;1.30;;
16440;SDS011;8330;-33.858;151.184;2023-02-03T09:03:56;6.28;;;1.67;;
16440;SDS011;8330;-33.858;151.184;2023-02-03T09:06:29;3.38;;;1.77;;
16440;SDS011;8330;-33.858;151.184;2023-02-03T09:09:00;3.05;;;1.23;;
16440;SDS011;8330;-33.858;151.184;2023-02-03T09:11:34;4.03;;;1.88;;
16440;SDS011;8330;-33.858;151.184;2023-02-03T09:14:05;4.60;;;1.40;;
16440;SDS011;8330;-33.858;151.184;2023-02-03T09:16:36;5.85;;;1.50;;
16440;SDS011;8330;-33.858;151.184;2023-02-03T09:19:07;6.30;;;1.98;;
16440;SDS011;8330;-33.858;151.184;2023-02-03T09:21:38;3.70;;;1.80;;
16440;SDS011;8330;-33.858;151.184;2023-02-03T09:24:09;4.65;;;1.83;;
16440;SDS011;8330;-33.858;151.184;2023-02-03T09:26:42;5.05;;;1.50;;
16440;SDS011;8330;-33.858;151.184;2023-02-03T09:29:14;1.90;;;1.15;;
16440;SDS011;8330;-33.858;151.184;2023-02-03T09:31:47;4.90;;;1.60;;
16440;SDS011;8330;-33.858;151.184;2023-02-03T09:34:19;3.15;;;1.80;;
16440;SDS011;8330;-33.858;151.184;2023-02-03T09:36:54;3.80;;;1.48;;
16440;SDS011;8330;-33.858;151.184;2023-02-03T09:39:25;2.78;;;1.38;;
16440;SDS011;8330;-33.858;151.184;2023-02-03T09:42:05;3.97;;;1.80;;
16440;SDS011;8330;-33.858;151.184;2023-02-03T09:44:58;4.57;;;1.52;;
16440;SDS011;8330;-33.858;151.184;2023-02-03T09:47:39;4.65;;;1.42;;
16440;SDS011;8330;-33.858;151.184;2023-02-03T09:50:12;3.05;;;1.30;;
16440;SDS011;8330;-33.858;151.184;2023-02-03T09:52:51;3.25;;;1.52;;
16440;SDS011;8330;-33.858;151.184;2023-02-03T09:55:26;3.75;;;1.40;;
16440;SDS011;8330;-33.858;151.184;2023-02-03T09:58:05;3.50;;;1.20;;
16440;SDS011;8330;-33.858;151.184;2023-02-03T10:00:42;3.60;;;1.75;;
16440;SDS011;8330;-33.858;151.184;2023-02-03T10:03:23;4.78;;;2.10;;
16440;SDS011;8330;-33.858;151.184;2023-02-03T10:06:06;4.22;;;1.90;;
16440;SDS011;8330;-33.858;151.184;2023-02-03T10:08:48;3.65;;;1.58;;
16440;SDS011;8330;-33.858;151.184;2023-02-03T10:11:39;3.15;;;1.55;;
16440;SDS011;8330;-33.858;151.184;2023-02-03T10:14:27;4.55;;;3.28;;
16440;SDS011;8330;-33.858;151.184;2023-02-03T10:17:10;5.68;;;3.30;;
16440;SDS011;8330;-33.858;151.184;2023-02-03T10:19:52;6.80;;;2.53;;
16440;SDS011;8330;-33.858;151.184;2023-02-03T10:22:30;7.20;;;2.20;;
16440;SDS011;8330;-33.858;151.184;2023-02-03T10:25:16;2.53;;;1.20;;
16440;SDS011;8330;-33.858;151.184;2023-02-03T10:27:55;4.22;;;1.52;;
16440;SDS011;8330;-33.858;151.184;2023-02-03T10:30:41;4.95;;;1.30;;
16440;SDS011;8330;-33.858;151.184;2023-02-03T10:33:17;4.13;;;1.30;;
16440;SDS011;8330;-33.858;151.184;2023-02-03T10:35:49;3.15;;;1.38;;
16440;SDS011;8330;-33.858;151.184;2023-02-03T10:38:26;2.35;;;1.15;;
16440;SDS011;8330;-33.858;151.184;2023-02-03T10:41:10;3.50;;;1.20;;
16440;SDS011;8330;-33.858;151.184;2023-02-03T10:43:46;1.30;;;0.70;;
16440;SDS011;8330;-33.858;151.184;2023-02-03T10:46:26;3.20;;;1.00;;
16440;SDS011;8330;-33.858;151.184;2023-02-03T10:49:03;2.88;;;0.93;;
16440;SDS011;8330;-33.858;151.184;2023-02-03T10:51:35;2.33;;;1.02;;
16440;SDS011;8330;-33.858;151.184;2023-02-03T10:54:19;3.05;;;1.10;;
16440;SDS011;8330;-33.858;151.184;2023-02-03T10:57:00;3.55;;;1.10;;
16440;SDS011;8330;-33.858;151.184;2023-02-03T10:59:36;2.47;;;0.80;;
16440;SDS011;8330;-33.858;151.184;2023-02-03T11:02:20;3.08;;;1.02;;
16440;SDS011;8330;-33.858;151.184;2023-02-03T11:07:51;3.22;;;1.10;;
16440;SDS011;8330;-33.858;151.184;2023-02-03T11:10:32;2.65;;;0.88;;
16440;SDS011;8330;-33.858;151.184;2023-02-03T11:13:14;4.28;;;1.20;;
16440;SDS011;8330;-33.858;151.184;2023-02-03T11:15:56;5.03;;;0.82;;
16440;SDS011;8330;-33.858;151.184;2023-02-03T11:18:40;2.65;;;0.90;;
16440;SDS011;8330;-33.858;151.184;2023-02-03T11:21:17;2.40;;;0.70;;
16440;SDS011;8330;-33.858;151.184;2023-02-03T11:24:01;2.25;;;0.90;;
16440;SDS011;8330;-33.858;151.184;2023-02-03T11:26:35;2.35;;;0.80;;
16440;SDS011;8330;-33.858;151.184;2023-02-03T11:29:14;2.70;;;0.85;;
16440;SDS011;8330;-33.858;151.184;2023-02-03T11:31:47;3.30;;;1.00;;
16440;SDS011;8330;-33.858;151.184;2023-02-03T11:34:29;2.53;;;0.77;;
16440;SDS011;8330;-33.858;151.184;2023-02-03T11:40:11;2.33;;;1.00;;
16440;SDS011;8330;-33.858;151.184;2023-02-03T11:42:59;3.05;;;1.05;;
16440;SDS011;8330;-33.858;151.184;2023-02-03T11:45:35;2.35;;;0.80;;
16440;SDS011;8330;-33.858;151.184;2023-02-03T11:48:16;3.78;;;0.90;;
16440;SDS011;8330;-33.858;151.184;2023-02-03T11:51:02;3.78;;;0.88;;
16440;SDS011;8330;-33.858;151.184;2023-02-03T11:53:48;2.10;;;0.68;;
16440;SDS011;8330;-33.858;151.184;2023-02-03T11:56:57;2.45;;;0.63;;
16440;SDS011;8330;-33.858;151.184;2023-02-03T11:59:53;2.53;;;0.80;;
16440;SDS011;8330;-33.858;151.184;2023-02-03T12:02:43;4.95;;;0.85;;
16440;SDS011;8330;-33.858;151.184;2023-02-03T12:05:38;1.95;;;0.93;;
16440;SDS011;8330;-33.858;151.184;2023-02-03T12:08:37;1.88;;;0.52;;
16440;SDS011;8330;-33.858;151.184;2023-02-03T12:11:28;2.33;;;0.80;;
16440;SDS011;8330;-33.858;151.184;2023-02-03T12:14:13;3.60;;;0.80;;
16440;SDS011;8330;-33.858;151.184;2023-02-03T12:20:05;3.33;;;0.90;;
16440;SDS011;8330;-33.858;151.184;2023-02-03T12:22:55;1.70;;;0.60;;
16440;SDS011;8330;-33.858;151.184;2023-02-03T12:25:39;1.85;;;0.75;;
16440;SDS011;8330;-33.858;151.184;2023-02-03T12:28:20;3.92;;;0.75;;
16440;SDS011;8330;-33.858;151.184;2023-02-03T12:31:07;3.72;;;0.80;;
16440;SDS011;8330;-33.858;151.184;2023-02-03T12:33:44;3.70;;;0.90;;
16440;SDS011;8330;-33.858;151.184;2023-02-03T12:36:25;3.53;;;0.85;;
16440;SDS011;8330;-33.858;151.184;2023-02-03T12:38:59;3.78;;;1.05;;
16440;SDS011;8330;-33.858;151.184;2023-02-03T12:41:41;4.50;;;1.10;;
16440;SDS011;8330;-33.858;151.184;2023-02-03T12:44:16;1.98;;;0.98;;
16440;SDS011;8330;-33.858;151.184;2023-02-03T12:46:54;2.60;;;1.02;;
16440;SDS011;8330;-33.858;151.184;2023-02-03T12:49:31;3.15;;;0.98;;
16440;SDS011;8330;-33.858;151.184;2023-02-03T12:52:11;2.50;;;0.98;;
16440;SDS011;8330;-33.858;151.184;2023-02-03T12:54:53;2.33;;;0.93;;
16440;SDS011;8330;-33.858;151.184;2023-02-03T12:57:34;3.55;;;0.85;;
16440;SDS011;8330;-33.858;151.184;2023-02-03T13:00:20;4.70;;;0.80;;
16440;SDS011;8330;-33.858;151.184;2023-02-03T13:03:08;3.47;;;1.10;;
16440;SDS011;8330;-33.858;151.184;2023-02-03T13:06:06;4.60;;;1.20;;
16440;SDS011;8330;-33.858;151.184;2023-02-03T13:08:42;2.30;;;0.90;;
16440;SDS011;8330;-33.858;151.184;2023-02-03T13:11:19;1.90;;;0.90;;
16440;SDS011;8330;-33.858;151.184;2023-02-03T13:14:00;6.47;;;1.00;;
16440;SDS011;8330;-33.858;151.184;2023-02-03T13:16:40;2.85;;;0.88;;
16440;SDS011;8330;-33.858;151.184;2023-02-03T13:19:15;3.92;;;1.20;;
16440;SDS011;8330;-33.858;151.184;2023-02-03T13:21:49;3.80;;;0.90;;
16440;SDS011;8330;-33.858;151.184;2023-02-03T13:24:22;4.25;;;1.10;;
16440;SDS011;8330;-33.858;151.184;2023-02-03T13:27:07;3.53;;;1.00;;
16440;SDS011;8330;-33.858;151.184;2023-02-03T13:30:00;3.00;;;0.93;;
16440;SDS011;8330;-33.858;151.184;2023-02-03T13:36:07;2.75;;;1.13;;
16440;SDS011;8330;-33.858;151.184;2023-02-03T13:39:01;2.95;;;0.85;;
16440;SDS011;8330;-33.858;151.184;2023-02-03T13:41:53;4.30;;;1.02;;
16440;SDS011;8330;-33.858;151.184;2023-02-03T13:44:25;2.78;;;0.85;;
16440;SDS011;8330;-33.858;151.184;2023-02-03T13:47:00;5.18;;;1.20;;
16440;SDS011;8330;-33.858;151.184;2023-02-03T13:49:32;2.78;;;1.05;;
16440;SDS011;8330;-33.858;151.184;2023-02-03T13:52:05;3.75;;;1.00;;
16440;SDS011;8330;-33.858;151.184;2023-02-03T13:54:56;2.40;;;0.77;;
16440;SDS011;8330;-33.858;151.184;2023-02-03T13:57:30;3.58;;;0.90;;
16440;SDS011;8330;-33.858;151.184;2023-02-03T14:00:04;3.35;;;0.90;;
16440;SDS011;8330;-33.858;151.184;2023-02-03T14:02:57;3.17;;;0.90;;
16440;SDS011;8330;-33.858;151.184;2023-02-03T14:05:44;2.58;;;0.80;;
16440;SDS011;8330;-33.858;151.184;2023-02-03T14:23:46;4.97;;;0.90;;
16440;SDS011;8330;-33.858;151.184;2023-02-03T14:26:36;2.83;;;0.93;;
16440;SDS011;8330;-33.858;151.184;2023-02-03T14:29:10;3.25;;;0.90;;
16440;SDS011;8330;-33.858;151.184;2023-02-03T14:31:55;4.55;;;0.80;;
16440;SDS011;8330;-33.858;151.184;2023-02-03T14:34:32;4.85;;;1.02;;
16440;SDS011;8330;-33.858;151.184;2023-02-03T14:37:20;5.00;;;0.80;;
16440;SDS011;8330;-33.858;151.184;2023-02-03T14:40:05;2.17;;;0.75;;
16440;SDS011;8330;-33.858;151.184;2023-02-03T14:45:50;2.83;;;0.82;;
16440;SDS011;8330;-33.858;151.184;2023-02-03T14:48:50;3.75;;;0.70;;
16440;SDS011;8330;-33.858;151.184;2023-02-03T14:51:40;1.80;;;0.82;;
16440;SDS011;8330;-33.858;151.184;2023-02-03T14:54:33;2.95;;;0.75;;
16440;SDS011;8330;-33.858;151.184;2023-02-03T14:57:24;2.75;;;0.95;;
16440;SDS011;8330;-33.858;151.184;2023-02-03T15:00:04;3.72;;;0.90;;
16440;SDS011;8330;-33.858;151.184;2023-02-03T15:05:51;2.75;;;0.82;;
16440;SDS011;8330;-33.858;151.184;2023-02-03T15:08:40;2.55;;;0.80;;
16440;SDS011;8330;-33.858;151.184;2023-02-03T15:11:20;2.47;;;0.70;;
16440;SDS011;8330;-33.858;151.184;2023-02-03T15:14:12;3.20;;;0.90;;
16440;SDS011;8330;-33.858;151.184;2023-02-03T15:16:57;4.45;;;0.98;;
16440;SDS011;8330;-33.858;151.184;2023-02-03T15:19:31;3.15;;;0.82;;
16440;SDS011;8330;-33.858;151.184;2023-02-03T15:22:16;2.90;;;1.00;;
16440;SDS011;8330;-33.858;151.184;2023-02-03T15:24:48;3.88;;;0.90;;
16440;SDS011;8330;-33.858;151.184;2023-02-03T15:27:21;4.10;;;0.90;;
16440;SDS011;8330;-33.858;151.184;2023-02-03T15:29:55;6.30;;;1.02;;
16440;SDS011;8330;-33.858;151.184;2023-02-03T15:32:27;2.90;;;0.85;;
16440;SDS011;8330;-33.858;151.184;2023-02-03T15:35:03;6.40;;;0.93;;
16440;SDS011;8330;-33.858;151.184;2023-02-03T15:37:40;3.08;;;0.98;;
16440;SDS011;8330;-33.858;151.184;2023-02-03T15:40:16;3.22;;;0.90;;
16440;SDS011;8330;-33.858;151.184;2023-02-03T15:42:50;2.42;;;0.93;;
16440;SDS011;8330;-33.858;151.184;2023-02-03T15:45:27;2.50;;;0.82;;
16440;SDS011;8330;-33.858;151.184;2023-02-03T15:48:01;2.88;;;0.93;;
16440;SDS011;8330;-33.858;151.184;2023-02-03T15:50:40;3.95;;;0.85;;